Time;durP1;ratioP1;P1;durP2;ratioP2;P2;SDS_P1;SDS_P2;PMS_P1;PMS_P2;Temp;Humidity;BMP_temperature;BMP_pressure;BME280_temperature;BME280_humidity;BME280_pressure;Samples;Min_cycle;Max_cycle;Signal;HPM_P1;HPM_P2
2022/07/16 00:01:55;;;;;;;;;;;;;;;22.11;71.86;96988.64;599830;236;64488;-75
2022/07/16 00:04:23;;;;;;;;;;;;;;;22.11;71.87;96993.20;593283;239;62862;-76
2022/07/16 00:06:50;;;;;;;;;;;;;;;22.11;71.75;96991.31;599860;236;64560;-76
2022/07/16 00:09:18;;;;;;;;;;;;;;;22.11;71.96;96985.17;593313;239;64391;-76
2022/07/16 00:11:45;;;;;;;;;;;;;;;22.11;72.05;96993.20;599819;236;62833;-76
2022/07/16 00:14:13;;;;;;;;;;;;;;;22.11;71.78;96985.96;593234;239;64508;-76
2022/07/16 00:16:40;;;;;;;;;;;;;;;22.11;71.95;96987.84;599835;236;64675;-76
2022/07/16 00:19:18;;;;;;;;;;;;;;;22.11;71.84;96987.84;593242;239;62909;-75
2022/07/16 00:21:47;;;;;;;;;;;;;;;22.11;71.83;96988.64;599865;236;67023;-76
2022/07/16 00:24:15;;;;;;;;;;;;;;;22.10;71.80;96979.02;593243;239;64620;-76
2022/07/16 00:26:43;;;;;;;;;;;;;;;22.10;72.02;96976.34;599867;236;62860;-76
2022/07/16 00:29:11;;;;;;;;;;;;;;;22.10;72.17;96984.38;593259;239;66830;-76
2022/07/16 00:31:38;;;;;;;;;;;;;;;22.11;71.94;96983.28;599858;236;64566;-67
2022/07/16 00:34:07;;;;;;;;;;;;;;;22.10;71.98;96983.58;593316;239;64883;-67
2022/07/16 00:36:35;;;;;;;;;;;;;;;22.11;72.05;96983.28;599875;236;66761;-67
2022/07/16 00:39:03;;;;;;;;;;;;;;;22.11;72.22;96987.84;593265;239;64582;-67
2022/07/16 00:41:30;;;;;;;;;;;;;;;22.10;71.95;96979.02;599866;236;62876;-67
2022/07/16 00:44:00;;;;;;;;;;;;;;;22.11;71.86;96980.61;593282;239;64537;-67
2022/07/16 00:46:28;;;;;;;;;;;;;;;22.11;71.94;96985.17;599823;236;66666;-67
2022/07/16 00:48:56;;;;;;;;;;;;;;;22.10;72.03;96981.70;593337;239;63060;-67
2022/07/16 00:51:24;;;;;;;;;;;;;;;22.11;72.11;96983.28;599798;236;64333;-67
2022/07/16 00:53:53;;;;;;;;;;;;;;;22.11;72.34;96979.81;593308;239;66692;-76
2022/07/16 00:56:21;;;;;;;;;;;;;;;22.11;72.25;96982.50;599770;236;62787;-76
2022/07/16 00:58:48;;;;;;;;;;;;;;;22.11;72.25;96977.14;593314;239;64366;-76
2022/07/16 01:01:16;;;;;;;;;;;;;;;22.11;72.11;96974.47;599955;236;64156;-76
2022/07/16 01:03:44;;;;;;;;;;;;;;;22.11;71.97;96971.78;593303;239;63015;-76
2022/07/16 01:06:13;;;;;;;;;;;;;;;22.11;71.99;96961.08;599821;236;66548;-76
2022/07/16 01:08:44;;;;;;;;;;;;;;;22.11;72.13;96969.91;593306;239;66715;-67
2022/07/16 01:11:13;;;;;;;;;;;;;;;22.12;72.29;96976.05;599863;236;62760;-67
2022/07/16 01:13:42;;;;;;;;;;;;;;;22.11;72.17;96967.23;593364;239;66651;-67
2022/07/16 01:16:10;;;;;;;;;;;;;;;22.11;72.03;96963.76;599869;236;66698;-67
2022/07/16 01:18:38;;;;;;;;;;;;;;;22.10;72.05;96962.97;593280;239;65206;-67
2022/07/16 01:21:06;;;;;;;;;;;;;;;22.12;72.18;96970.70;599861;236;66585;-76
2022/07/16 01:23:34;;;;;;;;;;;;;;;22.11;72.04;96967.23;593286;239;66625;-76
2022/07/16 01:26:02;;;;;;;;;;;;;;;22.11;72.04;96964.55;599852;236;62820;-67
2022/07/16 01:28:29;;;;;;;;;;;;;;;22.11;72.11;96969.91;593335;239;64340;-67
2022/07/16 01:30:57;;;;;;;;;;;;;;;22.12;72.11;96966.14;599814;236;64590;-67
2022/07/16 01:33:26;;;;;;;;;;;;;;;22.12;72.29;96965.34;593251;239;62864;-67
2022/07/16 01:35:55;;;;;;;;;;;;;;;22.11;72.12;96974.47;599819;236;67275;-67
2022/07/16 01:38:22;;;;;;;;;;;;;;;22.12;72.19;96968.81;593314;238;64569;-67
2022/07/16 01:40:50;;;;;;;;;;;;;;;22.11;72.00;96979.81;599875;236;62725;-67
2022/07/16 01:43:19;;;;;;;;;;;;;;;22.12;71.91;96981.41;593293;239;64606;-67
2022/07/16 01:45:46;;;;;;;;;;;;;;;22.12;72.08;96982.20;599843;236;66773;-67
2022/07/16 01:48:15;;;;;;;;;;;;;;;22.12;72.13;96986.76;593295;239;64957;-76
2022/07/16 01:50:43;;;;;;;;;;;;;;;22.12;72.25;96986.76;599857;236;66773;-76
2022/07/16 01:53:11;;;;;;;;;;;;;;;22.11;72.08;96983.28;593314;239;64785;-76
2022/07/16 01:55:38;;;;;;;;;;;;;;;22.11;72.25;96982.50;599338;236;62757;-75
2022/07/16 01:58:07;;;;;;;;;;;;;;;22.11;72.16;96988.64;593240;239;64545;-76
2022/07/16 02:00:35;;;;;;;;;;;;;;;22.12;72.25;96994.79;599846;236;66735;-76
2022/07/16 02:03:03;;;;;;;;;;;;;;;22.11;72.20;96991.31;593275;239;64933;-76
2022/07/16 02:05:31;;;;;;;;;;;;;;;22.12;72.09;96992.11;599891;236;66869;-76
2022/07/16 02:07:58;;;;;;;;;;;;;;;22.11;72.25;96985.17;593281;239;66686;-76
2022/07/16 02:10:26;;;;;;;;;;;;;;;22.12;72.19;96994.79;599816;236;64705;-76
2022/07/16 02:12:53;;;;;;;;;;;;;;;22.12;72.16;96989.44;593273;239;66958;-76
2022/07/16 02:15:23;;;;;;;;;;;;;;;22.11;72.31;96988.64;599708;236;64658;-75
2022/07/16 02:17:50;;;;;;;;;;;;;;;22.12;72.04;96992.91;593250;239;65216;-75
2022/07/16 02:20:18;;;;;;;;;;;;;;;22.12;72.16;96992.11;599868;236;67371;-75
2022/07/16 02:22:45;;;;;;;;;;;;;;;22.13;72.28;96991.05;593224;239;67363;-75
2022/07/16 02:25:13;;;;;;;;;;;;;;;22.12;72.22;96989.44;599778;236;65038;-75
2022/07/16 02:28:05;;;;;;;;;;;;;;;22.12;72.37;96994.79;593270;239;67206;-75
2022/07/16 02:30:10;;;;;;;;;;;;;;;22.12;72.16;96992.11;599056;236;67035;-76
2022/07/16 02:32:38;;;;;;;;;;;;;;;22.11;72.48;96991.31;593292;239;64958;-75
2022/07/16 02:35:05;;;;;;;;;;;;;;;22.11;72.19;96993.99;599792;236;67079;-76
2022/07/16 02:37:33;;;;;;;;;;;;;;;22.11;72.22;96990.52;593254;239;67213;-75
2022/07/16 02:40:01;;;;;;;;;;;;;;;22.11;72.25;96985.96;599848;236;64959;-75
2022/07/16 02:42:29;;;;;;;;;;;;;;;22.12;72.33;96992.91;593249;239;66794;-75
2022/07/16 02:44:56;;;;;;;;;;;;;;;22.11;72.23;96988.64;599865;236;66886;-75
2022/07/16 02:47:23;;;;;;;;;;;;;;;22.11;72.10;97002.02;593265;239;64995;-75
2022/07/16 02:49:51;;;;;;;;;;;;;;;22.12;72.31;97002.81;599788;236;65389;-75
2022/07/16 02:52:18;;;;;;;;;;;;;;;22.11;72.17;96999.34;593229;239;64869;-75
2022/07/16 02:54:46;;;;;;;;;;;;;;;22.11;72.25;97001.23;599780;236;62783;-75
2022/07/16 02:57:13;;;;;;;;;;;;;;;22.12;72.21;97002.81;593266;239;67119;-75
2022/07/16 02:59:41;;;;;;;;;;;;;;;22.11;72.00;97010.05;599823;236;67034;-75
2022/07/16 03:02:08;;;;;;;;;;;;;;;22.11;72.17;97006.58;593245;239;62776;-75
2022/07/16 03:04:36;;;;;;;;;;;;;;;22.12;72.46;97008.96;599838;236;64867;-76
2022/07/16 03:07:03;;;;;;;;;;;;;;;22.12;72.37;96997.47;593262;239;66781;-75
2022/07/16 03:09:31;;;;;;;;;;;;;;;22.13;72.34;97001.76;599845;236;65168;-75
2022/07/16 03:11:58;;;;;;;;;;;;;;;22.11;72.35;97003.91;593296;239;67080;-75
2022/07/16 03:14:26;;;;;;;;;;;;;;;22.12;72.27;97011.64;599810;236;67022;-75
2022/07/16 03:16:53;;;;;;;;;;;;;;;22.13;72.26;97020.49;593225;239;65011;-75
2022/07/16 03:19:21;;;;;;;;;;;;;;;22.12;72.27;97016.98;599797;236;67293;-75
2022/07/16 03:21:48;;;;;;;;;;;;;;;22.13;72.27;97015.14;593238;239;67084;-75
2022/07/16 03:24:16;;;;;;;;;;;;;;;22.12;72.43;97019.67;599857;236;64997;-75
2022/07/16 03:26:43;;;;;;;;;;;;;;;22.12;72.37;97014.31;593234;238;67261;-76
2022/07/16 03:29:11;;;;;;;;;;;;;;;22.11;72.40;97015.41;599836;236;66788;-76
2022/07/16 03:31:38;;;;;;;;;;;;;;;22.12;72.51;97014.31;593255;239;65069;-75
2022/07/16 03:34:06;;;;;;;;;;;;;;;22.11;72.36;97012.73;599787;236;67236;-75
2022/07/16 03:36:33;;;;;;;;;;;;;;;22.12;72.36;97026.91;593295;239;67456;-75
2022/07/16 03:39:06;;;;;;;;;;;;;;;22.12;72.46;97018.88;599810;236;63177;-75
2022/07/16 03:41:31;;;;;;;;;;;;;;;22.12;72.43;97034.94;589903;240;65047;-75
2022/07/16 03:43:59;;;;;;;;;;;;;;;22.12;72.59;97019.67;599809;236;67170;-75
2022/07/16 03:46:27;;;;;;;;;;;;;;;22.12;72.56;97026.91;593225;239;65379;-75
2022/07/16 03:48:54;;;;;;;;;;;;;;;22.11;72.66;97023.44;599853;236;67224;-75
2022/07/16 03:51:22;;;;;;;;;;;;;;;22.12;72.50;97018.88;593247;239;65122;-75
2022/07/16 03:53:50;;;;;;;;;;;;;;;22.12;72.68;97030.38;599836;236;63824;-75
2022/07/16 03:56:20;;;;;;;;;;;;;;;22.12;72.73;97024.23;593192;239;64793;-66
2022/07/16 03:58:47;;;;;;;;;;;;;;;22.12;72.86;97024.23;599800;236;65008;-66
2022/07/16 04:01:14;;;;;;;;;;;;;;;22.11;72.67;97022.64;593308;239;62657;-66
2022/07/16 04:03:42;;;;;;;;;;;;;;;22.12;72.74;97037.61;599875;236;65361;-66
2022/07/16 04:06:09;;;;;;;;;;;;;;;22.12;72.78;97040.28;593282;239;64981;-66
2022/07/16 04:08:37;;;;;;;;;;;;;;;22.12;72.53;97040.28;599819;236;63017;-66
2022/07/16 04:11:04;;;;;;;;;;;;;;;22.12;72.41;97033.05;593275;238;67352;-66
2022/07/16 04:13:32;;;;;;;;;;;;;;;22.12;72.39;97032.26;599785;236;67058;-75
2022/07/16 04:15:59;;;;;;;;;;;;;;;22.12;72.55;97029.58;593336;239;63043;-75
2022/07/16 04:18:27;;;;;;;;;;;;;;;22.12;72.57;97035.73;599848;236;64936;-75
2022/07/16 04:20:54;;;;;;;;;;;;;;;22.11;72.55;97036.02;593280;239;65049;-75
2022/07/16 04:23:22;;;;;;;;;;;;;;;22.12;72.74;97037.61;599817;236;65068;-66
2022/07/16 04:25:49;;;;;;;;;;;;;;;22.12;72.61;97035.73;593272;239;64908;-66
2022/07/16 04:28:18;;;;;;;;;;;;;;;22.12;72.60;97034.94;599850;236;64886;-66
2022/07/16 04:30:45;;;;;;;;;;;;;;;22.12;72.61;97045.64;593287;239;65173;-66
2022/07/16 04:33:13;;;;;;;;;;;;;;;22.11;72.69;97052.08;599834;236;67382;-66
2022/07/16 04:35:41;;;;;;;;;;;;;;;22.12;72.61;97048.31;593289;239;67141;-66
2022/07/16 04:38:09;;;;;;;;;;;;;;;22.12;72.71;97045.64;599841;236;64931;-66
2022/07/16 04:40:36;;;;;;;;;;;;;;;22.12;72.61;97050.99;593289;239;67391;-66
2022/07/16 04:43:04;;;;;;;;;;;;;;;22.12;72.81;97051.78;599850;236;67023;-66
2022/07/16 04:45:31;;;;;;;;;;;;;;;22.11;72.86;97046.73;593285;239;65042;-66
2022/07/16 04:47:59;;;;;;;;;;;;;;;22.11;72.81;97047.52;599723;236;67109;-66
2022/07/16 04:50:26;;;;;;;;;;;;;;;22.11;72.84;97050.20;593248;239;67376;-66
2022/07/16 04:52:54;;;;;;;;;;;;;;;22.11;72.81;97055.55;599892;236;62874;-66
2022/07/16 04:55:23;;;;;;;;;;;;;;;22.11;72.82;97055.55;593218;239;67172;-66
2022/07/16 04:57:50;;;;;;;;;;;;;;;22.11;72.70;97052.88;599810;236;67162;-66
2022/07/16 05:00:18;;;;;;;;;;;;;;;22.11;72.75;97057.43;593275;239;65108;-66
2022/07/16 05:02:58;;;;;;;;;;;;;;;22.11;72.79;97057.43;599813;236;67044;-66
2022/07/16 05:05:32;;;;;;;;;;;;;;;22.11;72.84;97060.91;593270;239;66752;-65
2022/07/16 05:08:01;;;;;;;;;;;;;;;22.10;72.89;97051.28;599780;236;62958;-66
2022/07/16 05:10:29;;;;;;;;;;;;;;;22.11;72.98;97049.41;593179;239;66626;-66
2022/07/16 05:12:57;;;;;;;;;;;;;;;22.11;72.84;97060.11;599842;236;66878;-67
2022/07/16 05:15:25;;;;;;;;;;;;;;;22.10;73.07;97047.81;593267;239;65105;-67
2022/07/16 05:17:52;;;;;;;;;;;;;;;22.11;73.07;97054.75;599814;236;67194;-67
2022/07/16 05:20:19;;;;;;;;;;;;;;;22.11;72.97;97049.41;593313;238;66873;-66
2022/07/16 05:22:47;;;;;;;;;;;;;;;22.10;73.09;97047.81;599824;236;65097;-67
2022/07/16 05:25:15;;;;;;;;;;;;;;;22.11;73.17;97049.41;593293;239;64823;-67
2022/07/16 05:27:43;;;;;;;;;;;;;;;22.11;73.18;97049.41;599871;236;66858;-66
2022/07/16 05:30:11;;;;;;;;;;;;;;;22.10;73.05;97059.31;593239;239;65057;-66
2022/07/16 05:32:39;;;;;;;;;;;;;;;22.10;72.93;97048.61;599823;236;67056;-67
2022/07/16 05:35:07;;;;;;;;;;;;;;;22.10;72.98;97059.31;593292;239;67051;-66
2022/07/16 05:37:34;;;;;;;;;;;;;;;22.11;73.01;97060.11;599793;236;65052;-67
2022/07/16 05:40:02;;;;;;;;;;;;;;;22.10;72.92;97064.67;593258;239;67283;-67
2022/07/16 05:42:29;;;;;;;;;;;;;;;22.11;73.01;97060.11;599810;236;67164;-66
2022/07/16 05:44:57;;;;;;;;;;;;;;;22.11;73.02;97065.46;593309;239;64998;-66
2022/07/16 05:47:24;;;;;;;;;;;;;;;22.11;73.14;97068.94;599809;236;64888;-67
2022/07/16 05:49:52;;;;;;;;;;;;;;;22.11;73.15;97068.14;593269;239;64997;-67
2022/07/16 05:52:19;;;;;;;;;;;;;;;22.11;73.10;97065.46;599815;236;62935;-66
2022/07/16 05:54:47;;;;;;;;;;;;;;;22.11;73.10;97057.43;593263;239;65133;-66
2022/07/16 05:57:14;;;;;;;;;;;;;;;22.10;73.04;97061.20;600369;236;66739;-67
2022/07/16 05:59:43;;;;;;;;;;;;;;;22.11;73.26;97052.08;590657;240;62781;-66
2022/07/16 06:02:11;;;;;;;;;;;;;;;22.11;73.28;97057.43;600359;236;64984;-66
2022/07/16 06:04:38;;;;;;;;;;;;;;;22.10;73.24;97053.96;593780;239;65250;-67
2022/07/16 06:07:06;;;;;;;;;;;;;;;22.11;73.30;97052.88;600333;236;63684;-67
2022/07/16 06:09:33;;;;;;;;;;;;;;;22.11;73.23;97052.08;593866;238;67201;-66
2022/07/16 06:12:01;;;;;;;;;;;;;;;22.10;73.24;97045.94;600341;236;67003;-66
2022/07/16 06:14:28;;;;;;;;;;;;;;;22.08;72.80;97044.61;593777;239;62693;-66
2022/07/16 06:16:56;;;;;;;;;;;;;;;22.08;71.82;97049.96;600332;236;64996;-66
2022/07/16 06:19:23;;;;;;;;;;;;;;;22.08;71.86;97044.61;593800;239;66682;-66
2022/07/16 06:21:51;;;;;;;;;;;;;;;22.10;72.26;97042.46;600404;236;63640;-67
2022/07/16 06:24:18;;;;;;;;;;;;;;;22.11;72.14;97038.70;593797;239;66918;-67
2022/07/16 06:26:49;;;;;;;;;;;;;;;22.11;71.66;97030.67;600346;236;67111;-67
2022/07/16 06:29:17;;;;;;;;;;;;;;;22.12;71.76;97030.38;593793;239;63838;-66
2022/07/16 06:31:45;;;;;;;;;;;;;;;22.12;72.02;97024.23;600339;236;65282;-67
2022/07/16 06:34:12;;;;;;;;;;;;;;;22.13;72.07;97025.84;593800;239;64926;-67
2022/07/16 06:36:40;;;;;;;;;;;;;;;22.13;72.61;97025.84;600389;236;64927;-66
2022/07/16 06:39:08;;;;;;;;;;;;;;;22.13;73.32;97023.96;593792;239;67298;-67
2022/07/16 06:41:37;;;;;;;;;;;;;;;22.13;73.34;97026.64;600319;236;67000;-66
2022/07/16 06:44:05;;;;;;;;;;;;;;;22.13;73.57;97023.17;593783;239;65167;-66
2022/07/16 06:46:33;;;;;;;;;;;;;;;22.13;73.54;97026.64;600373;236;67206;-66
2022/07/16 06:49:00;;;;;;;;;;;;;;;22.14;73.75;97022.08;593848;237;64964;-67
2022/07/16 06:51:28;;;;;;;;;;;;;;;22.14;73.86;97022.08;600350;236;62773;-66
2022/07/16 06:53:55;;;;;;;;;;;;;;;22.14;73.90;97022.08;593751;239;65022;-67
2022/07/16 06:56:23;;;;;;;;;;;;;;;22.15;73.95;97018.31;599949;236;64979;-67
2022/07/16 06:58:50;;;;;;;;;;;;;;;22.14;73.85;97028.23;593249;239;65001;-67
2022/07/16 07:01:18;;;;;;;;;;;;;;;22.14;74.02;97022.08;599846;236;67049;-66
2022/07/16 07:03:45;;;;;;;;;;;;;;;22.15;74.07;97020.99;593246;239;66996;-67
2022/07/16 07:06:13;;;;;;;;;;;;;;;22.15;73.99;97018.31;599798;236;65208;-66
2022/07/16 07:08:41;;;;;;;;;;;;;;;22.14;74.16;97014.84;593245;238;65251;-66
2022/07/16 07:11:09;;;;;;;;;;;;;;;22.15;73.97;97024.49;599837;236;67020;-67
2022/07/16 07:13:37;;;;;;;;;;;;;;;22.15;73.95;97024.49;593304;239;65122;-66
2022/07/16 07:16:05;;;;;;;;;;;;;;;22.16;74.01;97030.64;599800;236;67407;-66
2022/07/16 07:18:33;;;;;;;;;;;;;;;22.16;73.98;97027.97;593220;239;67222;-66
2022/07/16 07:21:01;;;;;;;;;;;;;;;22.16;74.00;97027.97;599788;236;65088;-66
2022/07/16 07:23:28;;;;;;;;;;;;;;;22.16;74.01;97026.08;593242;239;67125;-68
2022/07/16 07:25:56;;;;;;;;;;;;;;;22.17;73.85;97024.20;599830;236;67052;-67
2022/07/16 07:28:23;;;;;;;;;;;;;;;22.18;73.91;97036.55;593306;239;65060;-66
2022/07/16 07:30:51;;;;;;;;;;;;;;;22.16;73.94;97031.44;599788;236;67253;-67
2022/07/16 07:33:18;;;;;;;;;;;;;;;22.17;73.84;97026.88;593292;239;64926;-66
2022/07/16 07:35:46;;;;;;;;;;;;;;;22.18;73.70;97033.88;599838;235;63086;-67
2022/07/16 07:38:13;;;;;;;;;;;;;;;22.19;73.89;97034.67;593243;239;64712;-67
2022/07/16 07:40:41;;;;;;;;;;;;;;;22.18;73.83;97031.20;599908;236;64992;-67
2022/07/16 07:43:09;;;;;;;;;;;;;;;22.18;73.80;97033.88;593255;239;64903;-66
2022/07/16 07:45:36;;;;;;;;;;;;;;;22.19;73.94;97037.34;599842;236;67497;-67
2022/07/16 07:48:04;;;;;;;;;;;;;;;22.19;73.79;97029.31;593250;239;67106;-67
2022/07/16 07:50:32;;;;;;;;;;;;;;;22.19;73.86;97037.34;599851;236;63027;-67
2022/07/16 07:52:59;;;;;;;;;;;;;;;22.19;73.85;97035.46;593326;239;67249;-66
2022/07/16 07:55:27;;;;;;;;;;;;;;;22.18;73.80;97033.88;599801;236;66922;-66
2022/07/16 07:57:55;;;;;;;;;;;;;;;22.19;73.71;97046.17;593288;239;63033;-76
2022/07/16 08:00:22;;;;;;;;;;;;;;;22.19;73.77;97045.38;599831;236;67221;-76
2022/07/16 08:02:50;;;;;;;;;;;;;;;22.20;73.83;97045.08;593262;239;68372;-75
2022/07/16 08:05:17;;;;;;;;;;;;;;;22.19;73.79;97051.52;599870;236;65044;-75
2022/07/16 08:07:45;;;;;;;;;;;;;;;22.21;73.81;97048.55;593249;239;67155;-75
2022/07/16 08:10:13;;;;;;;;;;;;;;;22.20;73.72;97053.11;599817;236;67157;-75
2022/07/16 08:12:41;;;;;;;;;;;;;;;22.21;73.90;97054.73;593275;239;65097;-76
2022/07/16 08:15:09;;;;;;;;;;;;;;;22.21;73.90;97053.91;599768;236;67204;-75
2022/07/16 08:17:37;;;;;;;;;;;;;;;22.20;73.95;97053.11;593322;239;67096;-75
2022/07/16 08:20:05;;;;;;;;;;;;;;;22.22;73.99;97060.88;599829;236;65104;-76
2022/07/16 08:22:32;;;;;;;;;;;;;;;22.20;73.90;97058.47;593268;239;67246;-76
2022/07/16 08:27:45;;;;;;;;;;;;;;;22.21;73.93;97059.27;593266;239;62944;-67
2022/07/16 08:30:12;;;;;;;;;;;;;;;22.20;74.04;97053.11;599816;236;64956;-67
2022/07/16 08:32:40;;;;;;;;;;;;;;;22.21;73.90;97062.77;593301;239;65230;-67
2022/07/16 08:35:08;;;;;;;;;;;;;;;22.21;73.98;97065.44;599806;236;62896;-67
2022/07/16 08:37:37;;;;;;;;;;;;;;;22.21;73.93;97065.44;593271;239;64940;-67
2022/07/16 08:40:05;;;;;;;;;;;;;;;22.22;73.92;97066.23;599647;236;64870;-67
2022/07/16 08:42:33;;;;;;;;;;;;;;;22.21;73.94;97052.05;593265;239;65039;-67
2022/07/16 08:45:01;;;;;;;;;;;;;;;22.21;73.90;97062.77;599856;236;67085;-67
2022/07/16 08:47:30;;;;;;;;;;;;;;;22.21;73.77;97062.77;593332;239;67071;-67
2022/07/16 08:50:01;;;;;;;;;;;;;;;22.22;73.91;97068.91;599826;236;62887;-68
2022/07/16 08:52:29;;;;;;;;;;;;;;;22.21;73.94;97070.80;593277;239;66947;-66
2022/07/16 08:54:57;;;;;;;;;;;;;;;22.22;73.95;97077.73;599742;236;66949;-67
2022/07/16 08:57:25;;;;;;;;;;;;;;;22.22;73.86;97072.38;593272;239;64891;-67
2022/07/16 08:59:53;;;;;;;;;;;;;;;22.21;73.90;97070.80;599853;236;65194;-67
2022/07/16 09:02:21;;;;;;;;;;;;;;;22.23;73.81;97082.00;593290;239;67041;-66
2022/07/16 09:04:48;;;;;;;;;;;;;;;22.22;73.93;97085.77;599818;236;64873;-67
2022/07/16 09:07:17;;;;;;;;;;;;;;;22.23;73.71;97086.56;593239;239;67214;-67
2022/07/16 09:09:45;;;;;;;;;;;;;;;22.22;73.87;97083.09;599791;236;65001;-67
2022/07/16 09:12:14;;;;;;;;;;;;;;;22.23;73.95;97087.36;593357;239;62802;-67
2022/07/16 09:14:42;;;;;;;;;;;;;;;22.22;73.98;97075.06;599241;236;64777;-67
2022/07/16 09:17:09;;;;;;;;;;;;;;;22.23;74.02;97071.30;593297;239;64773;-66
2022/07/16 09:19:37;;;;;;;;;;;;;;;22.24;73.80;97072.91;599818;236;62737;-66
2022/07/16 09:22:06;;;;;;;;;;;;;;;22.23;73.90;97071.30;593273;239;64576;-67
2022/07/16 09:24:41;;;;;;;;;;;;;;;22.24;73.94;97070.23;599872;236;64266;-66
2022/07/16 09:27:11;;;;;;;;;;;;;;;22.24;73.83;97072.12;593337;239;64903;-67
2022/07/16 09:30:04;;;;;;;;;;;;;;;22.24;73.78;97067.56;599851;236;64694;-65
2022/07/16 09:32:36;;;;;;;;;;;;;;;22.23;73.81;97068.61;593302;239;66874;-66
2022/07/16 09:35:11;;;;;;;;;;;;;;;22.24;73.89;97066.77;599862;236;65061;-67
2022/07/16 09:37:58;;;;;;;;;;;;;;;22.24;73.90;97069.44;593270;239;64680;-65
2022/07/16 09:40:40;;;;;;;;;;;;;;;22.24;73.89;97066.77;599808;236;64768;-66
2022/07/16 09:43:15;;;;;;;;;;;;;;;22.23;73.87;97068.61;593270;239;62991;-67
2022/07/16 09:45:46;;;;;;;;;;;;;;;22.24;73.82;97064.09;599880;236;67083;-67
2022/07/16 09:48:21;;;;;;;;;;;;;;;22.24;73.90;97058.73;593253;239;67230;-67
2022/07/16 09:50:49;;;;;;;;;;;;;;;22.25;73.85;97063.00;599820;236;65114;-65
2022/07/16 09:53:18;;;;;;;;;;;;;;;22.24;73.80;97059.53;593245;239;68911;-65
2022/07/16 09:55:55;;;;;;;;;;;;;;;22.23;73.82;97055.23;599791;236;66887;-66
2022/07/16 09:58:22;;;;;;;;;;;;;;;22.25;73.75;97054.97;593253;239;65055;-66
2022/07/16 10:00:50;;;;;;;;;;;;;;;22.23;73.70;97055.23;599873;236;65738;-66
2022/07/16 10:03:17;;;;;;;;;;;;;;;22.25;73.75;97066.47;593241;239;67192;-66
2022/07/16 10:05:45;;;;;;;;;;;;;;;22.25;73.74;97058.44;599807;236;64914;-66
2022/07/16 10:08:14;;;;;;;;;;;;;;;22.25;73.67;97061.11;593246;239;67002;-66
2022/07/16 10:10:41;;;;;;;;;;;;;;;22.26;73.75;97060.05;599811;236;67006;-66
2022/07/16 10:13:09;;;;;;;;;;;;;;;22.26;73.79;97060.05;593282;239;65029;-66
2022/07/16 10:15:37;;;;;;;;;;;;;;;22.26;73.79;97057.38;599811;236;67596;-66
2022/07/16 10:18:06;;;;;;;;;;;;;;;22.25;73.84;97045.05;593234;239;64638;-66
2022/07/16 10:20:36;;;;;;;;;;;;;;;22.26;73.86;97054.70;599042;236;62955;-66
2022/07/16 10:23:06;;;;;;;;;;;;;;;22.25;73.63;97050.41;593278;239;67259;-66
2022/07/16 10:25:35;;;;;;;;;;;;;;;22.27;73.76;97056.29;599817;236;67759;-66
2022/07/16 10:28:03;;;;;;;;;;;;;;;22.27;73.66;97058.17;593330;239;65264;-66
2022/07/16 10:30:30;;;;;;;;;;;;;;;22.27;73.83;97060.85;599824;236;66927;-66
2022/07/16 10:33:02;;;;;;;;;;;;;;;22.27;73.69;97050.94;593295;239;66938;-66
2022/07/16 10:35:31;;;;;;;;;;;;;;;22.27;73.61;97056.29;599845;236;62890;-66
2022/07/16 10:38:12;;;;;;;;;;;;;;;22.27;73.68;97056.29;593243;239;66929;-66
2022/07/16 10:40:40;;;;;;;;;;;;;;;22.28;73.48;97059.77;599851;236;64576;-66
2022/07/16 10:43:15;;;;;;;;;;;;;;;22.28;73.55;97057.09;593299;239;65044;-66
2022/07/16 10:45:54;;;;;;;;;;;;;;;22.29;73.60;97066.70;599824;236;66904;-66
2022/07/16 10:48:29;;;;;;;;;;;;;;;22.28;73.58;97060.55;593299;239;64841;-67
2022/07/16 10:51:11;;;;;;;;;;;;;;;22.28;73.68;97055.20;599080;236;62792;-67
2022/07/16 10:54:01;;;;;;;;;;;;;;;22.28;73.75;97063.23;593239;239;66936;-66
2022/07/16 10:56:33;;;;;;;;;;;;;;;22.28;73.73;97060.55;600159;236;66555;-68
2022/07/16 10:59:05;;;;;;;;;;;;;;;22.29;73.63;97056.00;593824;239;65197;-67
2022/07/16 11:01:32;;;;;;;;;;;;;;;22.28;73.62;97049.84;600405;236;65419;-67
2022/07/16 11:04:00;;;;;;;;;;;;;;;22.29;73.49;97051.47;593756;239;66951;-67
2022/07/16 11:06:27;;;;;;;;;;;;;;;22.29;73.55;97045.28;600365;236;62657;-67
2022/07/16 11:08:56;;;;;;;;;;;;;;;22.29;73.70;97048.79;593796;239;64589;-67
2022/07/16 11:11:23;;;;;;;;;;;;;;;22.30;73.44;97044.23;600375;236;64614;-68
2022/07/16 11:13:54;;;;;;;;;;;;;;;22.29;73.49;97046.11;593852;239;62749;-67
2022/07/16 11:16:21;;;;;;;;;;;;;;;22.31;73.53;97054.64;600341;236;64346;-68
2022/07/16 11:18:49;;;;;;;;;;;;;;;22.30;73.43;97047.70;593801;238;64843;-68
2022/07/16 11:21:16;;;;;;;;;;;;;;;22.32;73.51;97066.97;600352;236;64905;-68
2022/07/16 11:23:56;;;;;;;;;;;;;;;22.31;73.44;97048.49;593822;239;66657;-68
2022/07/16 11:26:23;;;;;;;;;;;;;;;22.31;73.51;97051.17;600353;236;66765;-66
2022/07/16 11:28:52;;;;;;;;;;;;;;;22.31;73.29;97048.49;593817;239;65011;-66
2022/07/16 11:31:24;;;;;;;;;;;;;;;22.32;73.34;97042.88;600290;236;65715;-66
2022/07/16 11:33:56;;;;;;;;;;;;;;;22.32;73.36;97050.11;593187;239;66870;-67
2022/07/16 11:36:25;;;;;;;;;;;;;;;22.31;73.39;97043.94;593815;239;64916;-67
2022/07/16 11:38:54;;;;;;;;;;;;;;;22.33;73.36;97049.02;600399;236;64321;-67
2022/07/16 11:41:22;;;;;;;;;;;;;;;22.32;73.32;97050.91;589445;239;64642;-67
2022/07/16 11:43:50;;;;;;;;;;;;;;;22.33;73.37;97047.14;597452;237;63776;-67
2022/07/16 11:46:23;;;;;;;;;;;;;;;22.32;73.40;97053.58;596001;238;64596;-67
2022/07/16 11:48:51;;;;;;;;;;;;;;;22.33;73.37;97051.70;595819;238;64728;-68
2022/07/16 11:51:18;;;;;;;;;;;;;;;22.32;73.31;97045.55;596030;238;63830;-68
2022/07/16 11:53:53;;;;;;;;;;;;;;;22.34;73.31;97055.97;595927;238;66891;-65
2022/07/16 11:56:34;;;;;;;;;;;;;;;22.34;73.30;97058.64;595195;238;64621;-65
2022/07/16 11:59:04;;;;;;;;;;;;;;;22.33;73.39;97047.14;594832;238;62933;-68
2022/07/16 12:01:32;;;;;;;;;;;;;;;22.34;73.29;97042.58;594803;238;64782;-68
2022/07/16 12:03:59;;;;;;;;;;;;;;;22.34;73.21;97047.94;594808;238;64687;-68
2022/07/16 12:06:27;;;;;;;;;;;;;;;22.34;73.13;97047.94;594830;238;63035;-65
2022/07/16 12:08:56;;;;;;;;;;;;;;;22.34;73.34;97045.25;594828;238;66805;-65
2022/07/16 12:11:34;;;;;;;;;;;;;;;22.34;73.24;97043.41;594835;238;66532;-65
2022/07/16 12:14:02;;;;;;;;;;;;;;;22.34;73.32;97045.25;594823;238;65250;-65
2022/07/16 12:16:31;;;;;;;;;;;;;;;22.34;73.27;97051.44;594790;238;66803;-65
2022/07/16 12:19:03;;;;;;;;;;;;;;;22.35;73.10;97049.55;594837;238;67125;-66
2022/07/16 12:21:32;;;;;;;;;;;;;;;22.35;73.21;97046.88;594865;238;65047;-66
2022/07/16 12:24:01;;;;;;;;;;;;;;;22.34;73.27;97043.41;594857;238;64813;-66
2022/07/16 12:26:33;;;;;;;;;;;;;;;22.35;73.26;97041.52;594834;238;64785;-66
2022/07/16 12:29:01;;;;;;;;;;;;;;;22.34;72.99;97035.37;594856;238;65016;-66
2022/07/16 12:31:30;;;;;;;;;;;;;;;22.36;73.28;97051.14;594791;238;66997;-66
2022/07/16 12:33:58;;;;;;;;;;;;;;;22.35;73.31;97047.67;594910;238;64786;-66
2022/07/16 12:36:30;;;;;;;;;;;;;;;22.35;72.95;97036.95;594874;238;62888;-66
2022/07/16 12:39:00;;;;;;;;;;;;;;;22.35;73.07;97039.64;594838;238;66916;-66
2022/07/16 12:41:36;;;;;;;;;;;;;;;22.35;73.01;97036.95;594659;238;64731;-65
2022/07/16 12:44:05;;;;;;;;;;;;;;;22.37;73.07;97033.98;594790;238;65091;-65
2022/07/16 12:46:46;;;;;;;;;;;;;;;22.35;73.00;97039.64;594884;238;67293;-65
2022/07/16 12:49:10;;;;;;;;;;;;;;;22.37;73.02;97036.66;594619;238;66869;-66
2022/07/16 12:51:39;;;;;;;;;;;;;;;22.37;73.03;97042.02;594860;238;65067;-66
2022/07/16 12:54:08;;;;;;;;;;;;;;;22.36;73.14;97043.11;594764;238;64550;-76
2022/07/16 12:59:22;;;;;;;;;;;;;;;22.37;73.15;97045.52;594851;238;65141;-75
2022/07/16 13:01:50;;;;;;;;;;;;;;;22.37;73.04;97042.84;594874;238;66953;-75